createdAt,value
2023-01-08T11:01:10.296Z,6.60
2023-01-08T11:03:37.498Z,6.60
2023-01-08T11:06:17.519Z,7.60
2023-01-08T11:08:52.554Z,7.30
2023-01-08T11:11:20.249Z,6.90
2023-01-08T11:14:01.344Z,5.20
2023-01-08T11:16:37.047Z,6.70
2023-01-08T11:19:04.322Z,5.10
2023-01-08T11:21:32.220Z,5.50
2023-01-08T11:24:05.378Z,5.30
2023-01-08T11:26:32.405Z,5.30
2023-01-08T11:29:12.218Z,5.40
2023-01-08T11:31:42.348Z,5.70
2023-01-08T11:34:51.289Z,6.30
2023-01-08T11:37:32.264Z,5.30
2023-01-08T11:39:59.549Z,5.70
2023-01-08T11:42:32.683Z,5.90
2023-01-08T11:45:22.650Z,7.00
2023-01-08T11:48:07.429Z,5.60
2023-01-08T11:50:53.907Z,6.40
2023-01-08T11:53:47.181Z,4.70
2023-01-08T11:56:36.273Z,8.40
2023-01-08T11:59:18.522Z,7.40
2023-01-08T12:02:17.794Z,6.10
2023-01-08T12:05:06.905Z,5.20
2023-01-08T12:08:07.530Z,5.30
2023-01-08T12:10:43.813Z,6.20
2023-01-08T12:13:14.011Z,4.20
2023-01-08T12:16:10.731Z,5.10
2023-01-08T12:18:47.018Z,4.70
2023-01-08T12:21:52.872Z,5.10
2023-01-08T12:24:27.705Z,6.60
2023-01-08T12:27:20.470Z,8.40
2023-01-08T12:30:01.607Z,6.80
2023-01-08T12:32:36.469Z,6.80
2023-01-08T12:35:25.632Z,5.90
2023-01-08T12:37:57.951Z,6.90
2023-01-08T12:40:27.147Z,6.10
2023-01-08T12:43:01.283Z,6.00
2023-01-08T12:45:29.926Z,5.00
2023-01-08T12:48:05.019Z,6.50
2023-01-08T12:50:36.839Z,6.70
2023-01-08T12:53:07.325Z,6.50
2023-01-08T12:55:38.284Z,5.50
2023-01-08T12:58:16.883Z,6.30
2023-01-08T13:00:52.001Z,6.90
2023-01-08T13:03:22.726Z,6.70
2023-01-08T13:05:49.799Z,12.80
2023-01-08T13:08:29.482Z,14.70
2023-01-08T13:10:56.592Z,9.50
2023-01-08T13:13:25.796Z,7.30
2023-01-08T13:15:52.943Z,7.60
2023-01-08T13:18:20.705Z,7.90
2023-01-08T13:20:57.887Z,6.80
2023-01-08T13:23:26.134Z,6.80
2023-01-08T13:25:57.336Z,8.10
2023-01-08T13:28:50.887Z,7.60
2023-01-08T13:31:21.236Z,7.00
2023-01-08T13:33:49.374Z,12.50
2023-01-08T13:36:17.944Z,11.70
2023-01-08T13:38:45.435Z,10.50
2023-01-08T13:41:42.929Z,8.70
2023-01-08T13:44:29.848Z,7.40
2023-01-08T13:47:01.982Z,7.60
2023-01-08T13:49:45.714Z,8.00
2023-01-08T13:52:33.125Z,7.60
2023-01-08T13:55:02.077Z,9.00
2023-01-08T13:57:34.410Z,9.40
2023-01-08T14:00:01.485Z,10.00
2023-01-08T14:02:33.267Z,10.90
2023-01-08T14:05:01.926Z,9.10
2023-01-08T14:07:29.034Z,9.50
2023-01-08T14:10:09.337Z,10.10
2023-01-08T14:12:36.436Z,9.90
2023-01-08T14:15:06.147Z,9.80
2023-01-08T14:17:34.325Z,9.40
2023-01-08T14:20:01.328Z,9.10
2023-01-08T14:22:33.455Z,8.10
2023-01-08T14:25:05.759Z,9.10
2023-01-08T14:27:33.025Z,8.10
2023-01-08T14:30:00.151Z,8.60
2023-01-08T14:32:32.034Z,7.60
2023-01-08T14:35:00.671Z,8.70
2023-01-08T14:37:27.691Z,8.60
2023-01-08T14:39:55.380Z,10.10
2023-01-08T14:42:44.609Z,11.90
2023-01-08T14:45:28.902Z,12.70
2023-01-08T14:48:08.420Z,11.60
2023-01-08T14:50:37.731Z,11.60
2023-01-08T14:53:29.473Z,13.30
2023-01-08T14:55:57.195Z,13.60
2023-01-08T14:58:35.712Z,12.60
2023-01-08T15:01:17.794Z,18.10
2023-01-08T15:03:45.836Z,18.60
2023-01-08T15:06:14.206Z,15.80
2023-01-08T15:08:42.469Z,17.00
2023-01-08T15:11:18.705Z,17.10
2023-01-08T15:13:47.108Z,14.10
2023-01-08T15:16:21.749Z,14.20
2023-01-08T15:18:51.970Z,15.70
2023-01-08T15:21:20.072Z,14.90
2023-01-08T15:23:51.762Z,18.50
2023-01-08T15:26:18.926Z,21.60
2023-01-08T15:28:55.006Z,20.10
2023-01-08T15:31:41.533Z,23.00
2023-01-08T15:34:09.052Z,55.10
2023-01-08T15:36:36.711Z,50.00
2023-01-08T15:39:04.498Z,24.40
2023-01-08T15:41:57.539Z,14.60
2023-01-08T15:44:25.294Z,15.30
2023-01-08T15:46:52.709Z,18.60
2023-01-08T15:49:20.068Z,16.00
2023-01-08T15:51:48.321Z,16.40
2023-01-08T15:54:15.654Z,17.00
2023-01-08T15:56:42.847Z,16.60
2023-01-08T15:59:09.888Z,16.80
2023-01-08T16:01:37.206Z,19.80
2023-01-08T16:04:04.748Z,20.00
2023-01-08T16:06:32.100Z,18.70
2023-01-08T16:09:00.584Z,19.30
2023-01-08T16:11:27.731Z,20.50
2023-01-08T16:13:55.091Z,21.50
2023-01-08T16:16:23.659Z,23.50
2023-01-08T16:18:51.059Z,21.80
2023-01-08T16:21:18.082Z,21.90
2023-01-08T16:23:45.122Z,22.70
2023-01-08T16:26:14.041Z,23.70
2023-01-08T16:28:41.219Z,24.70
2023-01-08T16:31:08.955Z,27.90
2023-01-08T16:33:36.277Z,25.90
2023-01-08T16:36:05.813Z,24.90
2023-01-08T16:38:33.658Z,25.50
2023-01-08T16:41:01.032Z,22.00
2023-01-08T16:43:29.386Z,23.90
2023-01-08T16:45:56.828Z,27.50
2023-01-08T16:48:24.233Z,26.80
2023-01-08T16:50:51.448Z,26.60
2023-01-08T16:53:19.066Z,27.20
2023-01-08T16:55:46.266Z,24.00
2023-01-08T16:58:13.753Z,21.60
2023-01-08T17:00:40.853Z,20.00
2023-01-08T17:03:08.222Z,22.00
2023-01-08T17:05:36.452Z,20.50
2023-01-08T17:08:03.651Z,21.50
2023-01-08T17:10:30.799Z,22.20
2023-01-08T17:12:57.954Z,23.40
2023-01-08T17:15:25.108Z,29.10
2023-01-08T17:17:52.812Z,29.80
2023-01-08T17:20:20.166Z,22.10
2023-01-08T17:22:47.370Z,22.10
2023-01-08T17:25:14.927Z,21.40
2023-01-08T17:27:42.290Z,22.50
2023-01-08T17:30:11.162Z,22.00
2023-01-08T17:32:38.834Z,20.50
2023-01-08T17:35:06.707Z,21.10
2023-01-08T17:37:34.161Z,23.00
2023-01-08T17:40:02.431Z,23.60
2023-01-08T17:42:29.763Z,26.70
2023-01-08T17:44:59.214Z,26.90
2023-01-08T17:47:26.972Z,22.00
2023-01-08T17:49:56.072Z,26.40
2023-01-08T17:52:24.142Z,26.10
2023-01-08T17:54:51.891Z,27.40
2023-01-08T17:57:19.757Z,26.00
2023-01-08T17:59:47.317Z,25.90
2023-01-08T18:02:16.139Z,29.70
2023-01-08T18:04:44.187Z,33.80
2023-01-08T18:07:11.332Z,30.00
2023-01-08T18:09:38.425Z,29.80
2023-01-08T18:12:06.048Z,28.30
2023-01-08T18:14:35.264Z,28.40
2023-01-08T18:17:02.603Z,28.00
2023-01-08T18:19:29.771Z,30.10
2023-01-08T18:21:56.896Z,27.10
2023-01-08T18:24:24.049Z,27.30
2023-01-08T18:26:51.412Z,27.70
2023-01-08T18:29:18.458Z,29.50
2023-01-08T18:31:46.410Z,26.70
2023-01-08T18:34:15.515Z,28.40
2023-01-08T18:36:42.594Z,29.30
2023-01-08T18:39:09.699Z,33.30
2023-01-08T18:41:55.518Z,33.10
2023-01-08T18:44:22.652Z,34.40
2023-01-08T18:46:49.992Z,31.50
2023-01-08T18:49:17.067Z,33.00
2023-01-08T18:51:44.400Z,28.50
2023-01-08T18:54:12.301Z,29.90
2023-01-08T18:56:39.652Z,28.40
2023-01-08T18:59:07.111Z,28.60
2023-01-08T19:01:35.385Z,27.30
2023-01-08T19:04:02.952Z,28.20
2023-01-08T19:06:30.187Z,29.70
2023-01-08T19:08:58.440Z,26.80
2023-01-08T19:11:25.795Z,25.50
2023-01-08T19:13:57.076Z,22.90
2023-01-08T19:16:24.757Z,24.00
2023-01-08T19:18:51.956Z,26.20
2023-01-08T19:21:19.699Z,26.50
2023-01-08T19:23:47.678Z,35.50
2023-01-08T19:26:16.084Z,36.20
2023-01-08T19:28:43.420Z,37.90
2023-01-08T19:31:15.121Z,34.60
2023-01-08T19:33:42.432Z,33.30
2023-01-08T19:36:16.214Z,31.30
2023-01-08T19:38:43.993Z,26.30
2023-01-08T19:41:31.327Z,27.10
2023-01-08T19:43:58.686Z,26.00
2023-01-08T19:46:26.247Z,27.00
2023-01-08T19:48:53.503Z,25.90
2023-01-08T19:51:20.647Z,25.80
2023-01-08T19:53:47.997Z,23.20
2023-01-08T19:56:15.374Z,25.10
2023-01-08T19:58:42.838Z,23.60
2023-01-08T20:01:14.275Z,22.70
2023-01-08T20:03:41.534Z,20.70
2023-01-08T20:06:19.144Z,20.90
2023-01-08T20:08:50.976Z,19.40
2023-01-08T20:11:18.145Z,19.50
2023-01-08T20:13:45.479Z,20.40
2023-01-08T20:16:14.585Z,17.80
2023-01-08T20:18:42.109Z,19.10
2023-01-08T20:21:10.299Z,20.60
2023-01-08T20:23:37.500Z,17.80
2023-01-08T20:26:06.625Z,18.90
2023-01-08T20:28:34.722Z,17.60
2023-01-08T20:31:13.675Z,18.50
2023-01-08T20:33:41.002Z,17.90
2023-01-08T20:36:10.243Z,19.70
2023-01-08T20:38:37.914Z,19.30
2023-01-08T20:41:07.060Z,18.40
2023-01-08T20:43:35.319Z,18.40
2023-01-08T20:46:03.008Z,18.50
2023-01-08T20:48:34.391Z,19.50
2023-01-08T20:51:04.986Z,20.00
2023-01-08T20:53:34.188Z,16.90
2023-01-08T20:56:09.411Z,17.50
2023-01-08T20:58:37.388Z,16.60
2023-01-08T21:01:08.918Z,16.50
2023-01-08T21:03:36.407Z,15.70
2023-01-08T21:06:08.359Z,17.90
2023-01-08T21:08:35.607Z,18.10
2023-01-08T21:11:04.602Z,17.60
2023-01-08T21:13:32.343Z,17.20
2023-01-08T21:16:01.127Z,17.50
2023-01-08T21:18:28.413Z,17.00
2023-01-08T21:21:02.720Z,17.70
2023-01-08T21:23:29.920Z,18.90
2023-01-08T21:26:09.988Z,20.50
2023-01-08T21:28:37.593Z,19.20
2023-01-08T21:31:26.635Z,20.70
2023-01-08T21:33:54.935Z,19.90
2023-01-08T21:36:23.372Z,20.80
2023-01-08T21:38:50.768Z,29.90
2023-01-08T21:41:40.857Z,43.90
2023-01-08T21:44:40.467Z,22.90
2023-01-08T21:47:12.446Z,26.20
2023-01-08T21:49:39.891Z,26.70
2023-01-08T21:52:25.707Z,30.70
2023-01-08T21:54:53.980Z,34.40
2023-01-08T21:57:21.151Z,36.00
2023-01-08T21:59:51.486Z,36.50
2023-01-08T22:02:19.777Z,29.70
2023-01-08T22:04:46.887Z,33.70
2023-01-08T22:07:14.140Z,37.90
2023-01-08T22:09:41.260Z,33.30
2023-01-08T22:12:08.312Z,33.00
2023-01-08T22:14:35.607Z,33.90
2023-01-08T22:17:04.330Z,37.30
2023-01-08T22:19:31.446Z,38.30
2023-01-08T22:21:58.445Z,39.80
2023-01-08T22:24:25.525Z,54.40
2023-01-08T22:26:52.716Z,42.20
2023-01-08T22:29:19.733Z,38.10
2023-01-08T22:31:46.823Z,40.10
2023-01-08T22:34:17.304Z,38.10
2023-01-08T22:36:47.105Z,39.00
2023-01-08T22:39:14.074Z,37.60
2023-01-08T22:41:42.849Z,35.40
2023-01-08T22:44:11.407Z,39.20
2023-01-08T22:46:38.415Z,38.60
2023-01-08T22:49:05.403Z,38.80
2023-01-08T22:51:32.449Z,39.30
2023-01-08T22:53:59.536Z,38.30
2023-01-08T22:56:26.923Z,40.30
2023-01-08T22:58:54.253Z,39.80
2023-01-08T23:01:22.887Z,39.80
2023-01-08T23:03:50.944Z,37.20
2023-01-08T23:06:18.549Z,35.50
2023-01-08T23:08:45.670Z,34.10
2023-01-08T23:11:15.545Z,36.10
2023-01-08T23:13:43.162Z,37.60
2023-01-08T23:16:11.511Z,34.00
2023-01-08T23:18:38.939Z,35.00
2023-01-08T23:21:13.955Z,37.00
2023-01-08T23:23:41.167Z,37.70
2023-01-08T23:26:12.681Z,34.80
2023-01-08T23:28:39.716Z,33.60
2023-01-08T23:31:14.370Z,29.30
2023-01-08T23:33:41.458Z,35.60
2023-01-08T23:36:21.562Z,30.80
2023-01-08T23:38:50.372Z,31.20
2023-01-08T23:41:17.667Z,28.30
2023-01-08T23:43:46.076Z,25.50
2023-01-08T23:46:13.693Z,24.20
2023-01-08T23:48:40.946Z,24.10
2023-01-08T23:51:08.137Z,23.10
2023-01-08T23:53:35.342Z,20.10
2023-01-08T23:56:02.375Z,22.60
2023-01-08T23:58:29.394Z,19.80
